McGuffey, OH

8:43 AM EDT on November 01, 2014 (GMT -0400)
Marion Municipal | Change Station
CLOSE
Current Station
Airport
Location: Marion,
Elevation: 994 ft
Nearby Weather Stations
Active Advisory: Freeze Warning

Elev 994 ft 40.62 °N, 83.06 °W | Updated 5 minutes ago

Overcast
Overcast
36 °F
Feels Like 24 °F
N
23
Wind Variable Wind from North

Today
High -- | Low -- °F
--% Chance of Precip.
Yesterday
High -- | Low -- °F
Precip. -- in
8:05 AM 6:31 PM
Waxing Gibbous, 66% visible
Pressure 30.15 in
Visibility 6.0 miles
Clouds Overcast 900 ft
Windchill 24 °F
Dew Point 33 °F
Humidity 89%
Rainfall 0.08 in
Snow Depth Not available.
UV 0 out of 12
Pollen .10 out of 12
Air Quality Not available.
Flu Activity Not available.
SPECI KMNN 011238Z AUTO 36020KT 6SM BR OVC009 02/01 A3015 RMK AO2 T00220006 TSNO

More Conditions Fewer Conditions

Pressure 30.15 in
Visibility 6.0 miles
Clouds Overcast 900 ft
Windchill 24 °F
Dew Point 33 °F
Humidity 89%
Rainfall 0.08 in
Snow Depth Not available.
UV 0 out of 12
Pollen .10 out of 12
Air Quality Not available.
Flu Activity Not available.
SPECI KMNN 011238Z AUTO 36020KT 6SM BR OVC009 02/01 A3015 RMK AO2 T00220006 TSNO

More Conditions Fewer Conditions

10-Day Weather Forecast

Almanac

Astronomy

Nov. 01, 2014 Rise Set
Actual Time
Civil Twilight
Nautical Twilight
Astronomical Twilight
Moon
Length of Visible Light
Length of Day
Tomorrow will be .
, % of the Moon is Illuminated

Today's Extremes

State Highs State Lows

Community

WunderPhotos

Upload Photos

1,766,915 photos uploaded!

WunderBlogs® & News

Nearby

Air Quality

  Air Quality AQ Index Pollutant
Not available.

Snow Depth

Station Depth Elevation

Earthquake Activity

City Distance Mag. Time & Date
Minimum magnitude displayed is 2.5.

Coastal Water Temperatures

Place Temperature

Nearby Weather Stations